Aviation Digital Data Service (ADDS)

Output produced by METARs form (0310 UTC 18 June 2019)
found at http://www.aviationweather.gov/metar/data/
 
METAR text: WIBB 180230Z 00000KT 6000 -RA SCT012 FEW015CB 24/23 Q1011
Conditions at: WIBB (PAKANBARU/SIMPAN, ID) observed 0230 UTC 18 June 2019
Temperature: 24.0°C (75°F)
Dewpoint: 23.0°C (73°F) [RH = 94%]
Pressure (altimeter): 29.85 inches Hg (1011.0 mb)
Winds: calm
Visibility: 4 miles ( 6 km)
Ceiling: at least 12,000 feet AGL
Clouds: scattered clouds at 1200 feet AGL
few clouds at 1500 feet AGL
Weather: -RA  (light rain)

METAR text: WIBB 180200Z 00000KT 7000 RA SCT012 FEW015CB 23/23 Q1011
Conditions at: WIBB (PAKANBARU/SIMPAN, ID) observed 0200 UTC 18 June 2019
Temperature: 23.0°C (73°F)
Dewpoint: 23.0°C (73°F) [RH = 100%]
Pressure (altimeter): 29.85 inches Hg (1011.0 mb)
Winds: calm
Visibility: 4 miles ( 7 km)
Ceiling: at least 12,000 feet AGL
Clouds: scattered clouds at 1200 feet AGL
few clouds at 1500 feet AGL
Weather: RA  (moderate rain)

METAR text: WIBB 180130Z 15005KT 7000 -RA SCT012 FEW015CB 23/23 Q1011
Conditions at: WIBB (PAKANBARU/SIMPAN, ID) observed 0130 UTC 18 June 2019
Temperature: 23.0°C (73°F)
Dewpoint: 23.0°C (73°F) [RH = 100%]
Pressure (altimeter): 29.85 inches Hg (1011.0 mb)
Winds: from the SSE (150 degrees) at 6 MPH (5 knots; 2.6 m/s)
Visibility: 4 miles ( 7 km)
Ceiling: at least 12,000 feet AGL
Clouds: scattered clouds at 1200 feet AGL
few clouds at 1500 feet AGL
Weather: -RA  (light rain)

METAR text: WIBB 180100Z 22005KT 7000 SCT012 23/23 Q1010
Conditions at: WIBB (PAKANBARU/SIMPAN, ID) observed 0100 UTC 18 June 2019
Temperature: 23.0°C (73°F)
Dewpoint: 23.0°C (73°F) [RH = 100%]
Pressure (altimeter): 29.82 inches Hg (1010.0 mb)
Winds: from the SW (220 degrees) at 6 MPH (5 knots; 2.6 m/s)
Visibility: 4 miles ( 7 km)
Ceiling: at least 12,000 feet AGL
Clouds: scattered clouds at 1200 feet AGL
Weather: no significant weather observed at this time

METAR text: WIBB 180030Z 17009KT 7000 -RA SCT005 FEW015CB 23/23 Q1010
Conditions at: WIBB (PAKANBARU/SIMPAN, ID) observed 0030 UTC 18 June 2019
Temperature: 23.0°C (73°F)
Dewpoint: 23.0°C (73°F) [RH = 100%]
Pressure (altimeter): 29.82 inches Hg (1010.0 mb)
Winds: from the S (170 degrees) at 10 MPH (9 knots; 4.6 m/s)
Visibility: 4 miles ( 7 km)
Ceiling: at least 12,000 feet AGL
Clouds: scattered clouds at 500 feet AGL
few clouds at 1500 feet AGL
Weather: -RA  (light rain)

METAR text: WIBB 180000Z 20009KT 7000 -RA SCT005 FEW015CB 23/23 Q1010
Conditions at: WIBB (PAKANBARU/SIMPAN, ID) observed 0000 UTC 18 June 2019
Temperature: 23.0°C (73°F)
Dewpoint: 23.0°C (73°F) [RH = 100%]
Pressure (altimeter): 29.82 inches Hg (1010.0 mb)
Winds: from the SSW (200 degrees) at 10 MPH (9 knots; 4.6 m/s)
Visibility: 4 miles ( 7 km)
Ceiling: at least 12,000 feet AGL
Clouds: scattered clouds at 500 feet AGL
few clouds at 1500 feet AGL
Weather: -RA  (light rain)

METAR text: WIBB 172330Z 20005KT 7000 -RA SCT010 FEW016CB 24/23 Q1010
Conditions at: WIBB (PAKANBARU/SIMPAN, ID) observed 2330 UTC 17 June 2019
Temperature: 24.0°C (75°F)
Dewpoint: 23.0°C (73°F) [RH = 94%]
Pressure (altimeter): 29.82 inches Hg (1010.0 mb)
Winds: from the SSW (200 degrees) at 6 MPH (5 knots; 2.6 m/s)
Visibility: 4 miles ( 7 km)
Ceiling: at least 12,000 feet AGL
Clouds: scattered clouds at 1000 feet AGL
few clouds at 1600 feet AGL
Weather: -RA  (light rain)

METAR text: WIBB 172300Z 00000KT 6000 -RA SCT010 FEW016CB 24/24 Q1009
Conditions at: WIBB (PAKANBARU/SIMPAN, ID) observed 2300 UTC 17 June 2019
Temperature: 24.0°C (75°F)
Dewpoint: 24.0°C (75°F) [RH = 100%]
Pressure (altimeter): 29.79 inches Hg (1009.0 mb)
Winds: calm
Visibility: 4 miles ( 6 km)
Ceiling: at least 12,000 feet AGL
Clouds: scattered clouds at 1000 feet AGL
few clouds at 1600 feet AGL
Weather: -RA  (light rain)

METAR text: WIBB 171500Z 00000KT 8000 SCT013 28/26 Q1010
Conditions at: WIBB (PAKANBARU/SIMPAN, ID) observed 1500 UTC 17 June 2019
Temperature: 28.0°C (82°F)
Dewpoint: 26.0°C (79°F) [RH = 89%]
Pressure (altimeter): 29.82 inches Hg (1010.0 mb)
Winds: calm
Visibility: 5 miles ( 8 km)
Ceiling: at least 12,000 feet AGL
Clouds: scattered clouds at 1300 feet AGL
Weather: no significant weather observed at this time

METAR text: WIBB 171430Z 00000KT 8000 FEW013 28/26 Q1010
Conditions at: WIBB (PAKANBARU/SIMPAN, ID) observed 1430 UTC 17 June 2019
Temperature: 28.0°C (82°F)
Dewpoint: 26.0°C (79°F) [RH = 89%]
Pressure (altimeter): 29.82 inches Hg (1010.0 mb)
Winds: calm
Visibility: 5 miles ( 8 km)
Ceiling: at least 12,000 feet AGL
Clouds: few clouds at 1300 feet AGL
Weather: no significant weather observed at this time

METAR text: WIBB 171400Z 00000KT 8000 FEW013 28/27 Q1009
Conditions at: WIBB (PAKANBARU/SIMPAN, ID) observed 1400 UTC 17 June 2019
Temperature: 28.0°C (82°F)
Dewpoint: 27.0°C (81°F) [RH = 94%]
Pressure (altimeter): 29.79 inches Hg (1009.0 mb)
Winds: calm
Visibility: 5 miles ( 8 km)
Ceiling: at least 12,000 feet AGL
Clouds: few clouds at 1300 feet AGL
Weather: no significant weather observed at this time

METAR text: WIBB 171330Z 00000KT 8000 FEW013 28/27 Q1009
Conditions at: WIBB (PAKANBARU/SIMPAN, ID) observed 1330 UTC 17 June 2019
Temperature: 28.0°C (82°F)
Dewpoint: 27.0°C (81°F) [RH = 94%]
Pressure (altimeter): 29.79 inches Hg (1009.0 mb)
Winds: calm
Visibility: 5 miles ( 8 km)
Ceiling: at least 12,000 feet AGL
Clouds: few clouds at 1300 feet AGL
Weather: no significant weather observed at this time

METAR text: WIBB 171300Z 00000KT 8000 FEW013 29/26 Q1008
Conditions at: WIBB (PAKANBARU/SIMPAN, ID) observed 1300 UTC 17 June 2019
Temperature: 29.0°C (84°F)
Dewpoint: 26.0°C (79°F) [RH = 84%]
Pressure (altimeter): 29.76 inches Hg (1008.0 mb)
Winds: calm
Visibility: 5 miles ( 8 km)
Ceiling: at least 12,000 feet AGL
Clouds: few clouds at 1300 feet AGL
Weather: no significant weather observed at this time

METAR text: WIBB 171230Z 00000KT 8000 FEW017 29/26 Q1008 NOSIG
Conditions at: WIBB (PAKANBARU/SIMPAN, ID) observed 1230 UTC 17 June 2019
Temperature: 29.0°C (84°F)
Dewpoint: 26.0°C (79°F) [RH = 84%]
Pressure (altimeter): 29.76 inches Hg (1008.0 mb)
Winds: calm
Visibility: 5 miles ( 8 km)
Ceiling: at least 12,000 feet AGL
Clouds: few clouds at 1700 feet AGL
Weather: no significant weather observed at this time

METAR text: WIBB 171200Z 00000KT 8000 FEW017 29/26 Q1008 NOSIG
Conditions at: WIBB (PAKANBARU/SIMPAN, ID) observed 1200 UTC 17 June 2019
Temperature: 29.0°C (84°F)
Dewpoint: 26.0°C (79°F) [RH = 84%]
Pressure (altimeter): 29.76 inches Hg (1008.0 mb)
Winds: calm
Visibility: 5 miles ( 8 km)
Ceiling: at least 12,000 feet AGL
Clouds: few clouds at 1700 feet AGL
Weather: no significant weather observed at this time

METAR text: WIBB 171130Z 00000KT 8000 FEW017 29/26 Q1008 NOSIG
Conditions at: WIBB (PAKANBARU/SIMPAN, ID) observed 1130 UTC 17 June 2019
Temperature: 29.0°C (84°F)
Dewpoint: 26.0°C (79°F) [RH = 84%]
Pressure (altimeter): 29.76 inches Hg (1008.0 mb)
Winds: calm
Visibility: 5 miles ( 8 km)
Ceiling: at least 12,000 feet AGL
Clouds: few clouds at 1700 feet AGL
Weather: no significant weather observed at this time

METAR text: WIBB 171100Z 00000KT 8000 FEW017 29/25 Q1007 NOSIG
Conditions at: WIBB (PAKANBARU/SIMPAN, ID) observed 1100 UTC 17 June 2019
Temperature: 29.0°C (84°F)
Dewpoint: 25.0°C (77°F) [RH = 79%]
Pressure (altimeter): 29.73 inches Hg (1007.0 mb)
Winds: calm
Visibility: 5 miles ( 8 km)
Ceiling: at least 12,000 feet AGL
Clouds: few clouds at 1700 feet AGL
Weather: no significant weather observed at this time

METAR text: WIBB 171030Z 19005KT 9000 FEW017 30/25 Q1007 NOSIG
Conditions at: WIBB (PAKANBARU/SIMPAN, ID) observed 1030 UTC 17 June 2019
Temperature: 30.0°C (86°F)
Dewpoint: 25.0°C (77°F) [RH = 75%]
Pressure (altimeter): 29.73 inches Hg (1007.0 mb)
Winds: from the S (190 degrees) at 6 MPH (5 knots; 2.6 m/s)
Visibility: 6 miles ( 9 km)
Ceiling: at least 12,000 feet AGL
Clouds: few clouds at 1700 feet AGL
Weather: no significant weather observed at this time

METAR text: WIBB 171000Z 00000KT 9000 FEW017 30/25 Q1007
Conditions at: WIBB (PAKANBARU/SIMPAN, ID) observed 1000 UTC 17 June 2019
Temperature: 30.0°C (86°F)
Dewpoint: 25.0°C (77°F) [RH = 75%]
Pressure (altimeter): 29.73 inches Hg (1007.0 mb)
Winds: calm
Visibility: 6 miles ( 9 km)
Ceiling: at least 12,000 feet AGL
Clouds: few clouds at 1700 feet AGL
Weather: no significant weather observed at this time

METAR text: WIBB 170930Z 19005KT 9000 SCT017 30/25 Q1007 NOSIG
Conditions at: WIBB (PAKANBARU/SIMPAN, ID) observed 0930 UTC 17 June 2019
Temperature: 30.0°C (86°F)
Dewpoint: 25.0°C (77°F) [RH = 75%]
Pressure (altimeter): 29.73 inches Hg (1007.0 mb)
Winds: from the S (190 degrees) at 6 MPH (5 knots; 2.6 m/s)
Visibility: 6 miles ( 9 km)
Ceiling: at least 12,000 feet AGL
Clouds: scattered clouds at 1700 feet AGL
Weather: no significant weather observed at this time

METAR text: WIBB 170900Z 19006KT 9000 SCT017 30/25 Q1007 NOSIG
Conditions at: WIBB (PAKANBARU/SIMPAN, ID) observed 0900 UTC 17 June 2019
Temperature: 30.0°C (86°F)
Dewpoint: 25.0°C (77°F) [RH = 75%]
Pressure (altimeter): 29.73 inches Hg (1007.0 mb)
Winds: from the S (190 degrees) at 7 MPH (6 knots; 3.1 m/s)
Visibility: 6 miles ( 9 km)
Ceiling: at least 12,000 feet AGL
Clouds: scattered clouds at 1700 feet AGL
Weather: no significant weather observed at this time

METAR text: WIBB 170830Z 21008KT 9000 SCT017 29/25 Q1007
Conditions at: WIBB (PAKANBARU/SIMPAN, ID) observed 0830 UTC 17 June 2019
Temperature: 29.0°C (84°F)
Dewpoint: 25.0°C (77°F) [RH = 79%]
Pressure (altimeter): 29.73 inches Hg (1007.0 mb)
Winds: from the SSW (210 degrees) at 9 MPH (8 knots; 4.1 m/s)
Visibility: 6 miles ( 9 km)
Ceiling: at least 12,000 feet AGL
Clouds: scattered clouds at 1700 feet AGL
Weather: no significant weather observed at this time

METAR text: WIBB 170800Z 18005KT 9000 SCT017 30/25 Q1007 NOSIG
Conditions at: WIBB (PAKANBARU/SIMPAN, ID) observed 0800 UTC 17 June 2019
Temperature: 30.0°C (86°F)
Dewpoint: 25.0°C (77°F) [RH = 75%]
Pressure (altimeter): 29.73 inches Hg (1007.0 mb)
Winds: from the S (180 degrees) at 6 MPH (5 knots; 2.6 m/s)
Visibility: 6 miles ( 9 km)
Ceiling: at least 12,000 feet AGL
Clouds: scattered clouds at 1700 feet AGL
Weather: no significant weather observed at this time

METAR text: WIBB 170730Z 16007KT 9000 SCT015 30/25 Q1007 NOSIG
Conditions at: WIBB (PAKANBARU/SIMPAN, ID) observed 0730 UTC 17 June 2019
Temperature: 30.0°C (86°F)
Dewpoint: 25.0°C (77°F) [RH = 75%]
Pressure (altimeter): 29.73 inches Hg (1007.0 mb)
Winds: from the SSE (160 degrees) at 8 MPH (7 knots; 3.6 m/s)
Visibility: 6 miles ( 9 km)
Ceiling: at least 12,000 feet AGL
Clouds: scattered clouds at 1500 feet AGL
Weather: no significant weather observed at this time

METAR text: WIBB 170700Z 19006KT 8000 SCT015 29/25 Q1008
Conditions at: WIBB (PAKANBARU/SIMPAN, ID) observed 0700 UTC 17 June 2019
Temperature: 29.0°C (84°F)
Dewpoint: 25.0°C (77°F) [RH = 79%]
Pressure (altimeter): 29.76 inches Hg (1008.0 mb)
Winds: from the S (190 degrees) at 7 MPH (6 knots; 3.1 m/s)
Visibility: 5 miles ( 8 km)
Ceiling: at least 12,000 feet AGL
Clouds: scattered clouds at 1500 feet AGL
Weather: no significant weather observed at this time

METAR text: WIBB 170600Z 19008KT 9999 BKN013 31/25 Q1008
Conditions at: WIBB (PAKANBARU/SIMPAN, ID) observed 0600 UTC 17 June 2019
Temperature: 31.0°C (88°F)
Dewpoint: 25.0°C (77°F) [RH = 71%]
Pressure (altimeter): 29.76 inches Hg (1008.0 mb)
Winds: from the S (190 degrees) at 9 MPH (8 knots; 4.1 m/s)
Visibility: 6 or more miles (10+ km)
Ceiling: 1300 feet AGL
Clouds: broken clouds at 1300 feet AGL
Weather: no significant weather observed at this time

METAR text: WIBB 170530Z 16010KT 9999 BKN013 31/24 Q1009
Conditions at: WIBB (PAKANBARU/SIMPAN, ID) observed 0530 UTC 17 June 2019
Temperature: 31.0°C (88°F)
Dewpoint: 24.0°C (75°F) [RH = 66%]
Pressure (altimeter): 29.79 inches Hg (1009.0 mb)
Winds: from the SSE (160 degrees) at 12 MPH (10 knots; 5.1 m/s)
Visibility: 6 or more miles (10+ km)
Ceiling: 1300 feet AGL
Clouds: broken clouds at 1300 feet AGL
Weather: no significant weather observed at this time

METAR text: WIBB 170430Z 17010KT 9999 SCT013 30/25 Q1009
Conditions at: WIBB (PAKANBARU/SIMPAN, ID) observed 0430 UTC 17 June 2019
Temperature: 30.0°C (86°F)
Dewpoint: 25.0°C (77°F) [RH = 75%]
Pressure (altimeter): 29.79 inches Hg (1009.0 mb)
Winds: from the S (170 degrees) at 12 MPH (10 knots; 5.1 m/s)
Visibility: 6 or more miles (10+ km)
Ceiling: at least 12,000 feet AGL
Clouds: scattered clouds at 1300 feet AGL
Weather: no significant weather observed at this time

METAR text: WIBB 170400Z 18011KT 9999 SCT013 31/25 Q1009
Conditions at: WIBB (PAKANBARU/SIMPAN, ID) observed 0400 UTC 17 June 2019
Temperature: 31.0°C (88°F)
Dewpoint: 25.0°C (77°F) [RH = 71%]
Pressure (altimeter): 29.79 inches Hg (1009.0 mb)
Winds: from the S (180 degrees) at 13 MPH (11 knots; 5.7 m/s)
Visibility: 6 or more miles (10+ km)
Ceiling: at least 12,000 feet AGL
Clouds: scattered clouds at 1300 feet AGL
Weather: no significant weather observed at this time

METAR text: WIBB 170330Z 15008KT 9999 SCT013 30/25 Q1010
Conditions at: WIBB (PAKANBARU/SIMPAN, ID) observed 0330 UTC 17 June 2019
Temperature: 30.0°C (86°F)
Dewpoint: 25.0°C (77°F) [RH = 75%]
Pressure (altimeter): 29.82 inches Hg (1010.0 mb)
Winds: from the SSE (150 degrees) at 9 MPH (8 knots; 4.1 m/s)
Visibility: 6 or more miles (10+ km)
Ceiling: at least 12,000 feet AGL
Clouds: scattered clouds at 1300 feet AGL
Weather: no significant weather observed at this time

METAR text: WIBB 170300Z 17011KT 9999 SCT013 30/25 Q1010
Conditions at: WIBB (PAKANBARU/SIMPAN, ID) observed 0300 UTC 17 June 2019
Temperature: 30.0°C (86°F)
Dewpoint: 25.0°C (77°F) [RH = 75%]
Pressure (altimeter): 29.82 inches Hg (1010.0 mb)
Winds: from the S (170 degrees) at 13 MPH (11 knots; 5.7 m/s)
Visibility: 6 or more miles (10+ km)
Ceiling: at least 12,000 feet AGL
Clouds: scattered clouds at 1300 feet AGL
Weather: no significant weather observed at this time

METAR text: WIBB 170230Z 18012KT 9999 SCT015 29/25 Q1010
Conditions at: WIBB (PAKANBARU/SIMPAN, ID) observed 0230 UTC 17 June 2019
Temperature: 29.0°C (84°F)
Dewpoint: 25.0°C (77°F) [RH = 79%]
Pressure (altimeter): 29.82 inches Hg (1010.0 mb)
Winds: from the S (180 degrees) at 14 MPH (12 knots; 6.2 m/s)
Visibility: 6 or more miles (10+ km)
Ceiling: at least 12,000 feet AGL
Clouds: scattered clouds at 1500 feet AGL
Weather: no significant weather observed at this time

METAR text: WIBB 170130Z 18008KT 9999 FEW017 28/25 Q1010
Conditions at: WIBB (PAKANBARU/SIMPAN, ID) observed 0130 UTC 17 June 2019
Temperature: 28.0°C (82°F)
Dewpoint: 25.0°C (77°F) [RH = 84%]
Pressure (altimeter): 29.82 inches Hg (1010.0 mb)
Winds: from the S (180 degrees) at 9 MPH (8 knots; 4.1 m/s)
Visibility: 6 or more miles (10+ km)
Ceiling: at least 12,000 feet AGL
Clouds: few clouds at 1700 feet AGL
Weather: no significant weather observed at this time

METAR text: WIBB 170030Z 16005KT 9000 NSC 26/25 Q1009
Conditions at: WIBB (PAKANBARU/SIMPAN, ID) observed 0030 UTC 17 June 2019
Temperature: 26.0°C (79°F)
Dewpoint: 25.0°C (77°F) [RH = 94%]
Pressure (altimeter): 29.79 inches Hg (1009.0 mb)
Winds: from the SSE (160 degrees) at 6 MPH (5 knots; 2.6 m/s)
Visibility: 6 miles ( 9 km)
Ceiling: at least 12,000 feet AGL
Clouds: sky clear below 12,000 feet AGL
Weather: no significant weather observed at this time

METAR text: WIBB 170000Z 00000KT 8000 NSC 26/25 Q1009
Conditions at: WIBB (PAKANBARU/SIMPAN, ID) observed 0000 UTC 17 June 2019
Temperature: 26.0°C (79°F)
Dewpoint: 25.0°C (77°F) [RH = 94%]
Pressure (altimeter): 29.79 inches Hg (1009.0 mb)
Winds: calm
Visibility: 5 miles ( 8 km)
Ceiling: at least 12,000 feet AGL
Clouds: sky clear below 12,000 feet AGL
Weather: no significant weather observed at this time

METAR text: WIBB 162230Z 00000KT 8000 FEW014 26/25 Q1008
Conditions at: WIBB (PAKANBARU/SIMPAN, ID) observed 2230 UTC 16 June 2019
Temperature: 26.0°C (79°F)
Dewpoint: 25.0°C (77°F) [RH = 94%]
Pressure (altimeter): 29.76 inches Hg (1008.0 mb)
Winds: calm
Visibility: 5 miles ( 8 km)
Ceiling: at least 12,000 feet AGL
Clouds: few clouds at 1400 feet AGL
Weather: no significant weather observed at this time

METAR text: WIBB 162100Z 00000KT 8000 FEW015 26/25 Q1008
Conditions at: WIBB (PAKANBARU/SIMPAN, ID) observed 2100 UTC 16 June 2019
Temperature: 26.0°C (79°F)
Dewpoint: 25.0°C (77°F) [RH = 94%]
Pressure (altimeter): 29.76 inches Hg (1008.0 mb)
Winds: calm
Visibility: 5 miles ( 8 km)
Ceiling: at least 12,000 feet AGL
Clouds: few clouds at 1500 feet AGL
Weather: no significant weather observed at this time

METAR text: WIBB 161800Z 00000KT 8000 FEW017 27/25 Q1009
Conditions at: WIBB (PAKANBARU/SIMPAN, ID) observed 1800 UTC 16 June 2019
Temperature: 27.0°C (81°F)
Dewpoint: 25.0°C (77°F) [RH = 89%]
Pressure (altimeter): 29.79 inches Hg (1009.0 mb)
Winds: calm
Visibility: 5 miles ( 8 km)
Ceiling: at least 12,000 feet AGL
Clouds: few clouds at 1700 feet AGL
Weather: no significant weather observed at this time

METAR text: WIBB 161730Z 00000KT 8000 FEW017 27/25 Q1009
Conditions at: WIBB (PAKANBARU/SIMPAN, ID) observed 1730 UTC 16 June 2019
Temperature: 27.0°C (81°F)
Dewpoint: 25.0°C (77°F) [RH = 89%]
Pressure (altimeter): 29.79 inches Hg (1009.0 mb)
Winds: calm
Visibility: 5 miles ( 8 km)
Ceiling: at least 12,000 feet AGL
Clouds: few clouds at 1700 feet AGL
Weather: no significant weather observed at this time

METAR text: WIBB 161700Z 00000KT 8000 NSC 27/25 Q1009
Conditions at: WIBB (PAKANBARU/SIMPAN, ID) observed 1700 UTC 16 June 2019
Temperature: 27.0°C (81°F)
Dewpoint: 25.0°C (77°F) [RH = 89%]
Pressure (altimeter): 29.79 inches Hg (1009.0 mb)
Winds: calm
Visibility: 5 miles ( 8 km)
Ceiling: at least 12,000 feet AGL
Clouds: sky clear below 12,000 feet AGL
Weather: no significant weather observed at this time

METAR text: WIBB 161600Z 00000KT 8000 NSC 26/24 Q1010
Conditions at: WIBB (PAKANBARU/SIMPAN, ID) observed 1600 UTC 16 June 2019
Temperature: 26.0°C (79°F)
Dewpoint: 24.0°C (75°F) [RH = 89%]
Pressure (altimeter): 29.82 inches Hg (1010.0 mb)
Winds: calm
Visibility: 5 miles ( 8 km)
Ceiling: at least 12,000 feet AGL
Clouds: sky clear below 12,000 feet AGL
Weather: no significant weather observed at this time

METAR text: WIBB 161530Z 00000KT 8000 NSC 27/24 Q1010
Conditions at: WIBB (PAKANBARU/SIMPAN, ID) observed 1530 UTC 16 June 2019
Temperature: 27.0°C (81°F)
Dewpoint: 24.0°C (75°F) [RH = 84%]
Pressure (altimeter): 29.82 inches Hg (1010.0 mb)
Winds: calm
Visibility: 5 miles ( 8 km)
Ceiling: at least 12,000 feet AGL
Clouds: sky clear below 12,000 feet AGL
Weather: no significant weather observed at this time